Aviation Digital Data Service (ADDS)

Output produced by METARs form (2044 UTC 08 August 2020)
found at http://www.aviationweather.gov/metar/data/
 
KGXY 081956Z AUTO 08004KT 10SM CLR 33/02 A3008 RMK AO2 SLP136 T03330017